ADDS METAR Data INFO
IDs: Format: Raw Decoded Include TAF

Data at: 1815 UTC 22 Jan 2018

METAR for:KBKW (Beckley/Raleigh Cnty, WV, US)
Text:KBKW 221751Z AUTO 16012KT 10SM CLR 14/04 A2999 RMK AO2 SLP147 T01440044 10144 20089 58031 TSNO
Temperature: 14.4°C ( 58°F)
Dewpoint: 4.4°C ( 40°F) [RH = 51%]
Pressure (altimeter):29.99 inches Hg (1015.7 mb) [Sea level pressure: 1014.7 mb]
Winds:from the SSE (160 degrees) at 14 MPH (12 knots; 6.2 m/s)
Visibility:10 or more sm (16+ km)
Ceiling:at least 12,000 feet AGL
Clouds:sky clear below 12,000 feet AGL
QC Flag:automated observation with no human augmentation
Text:KBKW 221651Z AUTO 15009G17KT 10SM CLR 14/05 A3003 RMK AO2 SLP164 T01390050 TSNO
Temperature: 13.9°C ( 57°F)
Dewpoint: 5.0°C ( 41°F) [RH = 55%]
Pressure (altimeter):30.03 inches Hg (1017.0 mb) [Sea level pressure: 1016.4 mb]
Winds:from the SSE (150 degrees) at 10 MPH (9 knots; 4.6 m/s) gusting to 20 MPH (17 knots; 8.7 m/s)
Visibility:10 or more sm (16+ km)
Ceiling:at least 12,000 feet AGL
Clouds:sky clear below 12,000 feet AGL
QC Flag:automated observation with no human augmentation
Text:KBKW 221551Z AUTO 15009KT 10SM CLR 12/05 A3008 RMK AO2 SLP183 T01220050 TSNO
Temperature: 12.2°C ( 54°F)
Dewpoint: 5.0°C ( 41°F) [RH = 61%]
Pressure (altimeter):30.08 inches Hg (1018.7 mb) [Sea level pressure: 1018.3 mb]
Winds:from the SSE (150 degrees) at 10 MPH (9 knots; 4.6 m/s)
Visibility:10 or more sm (16+ km)
Ceiling:at least 12,000 feet AGL
Clouds:sky clear below 12,000 feet AGL
QC Flag:automated observation with no human augmentation
Text:KBKW 221451Z AUTO 14010KT 10SM CLR 11/04 A3009 RMK AO2 SLP185 T01060044 53002 TSNO
Temperature: 10.6°C ( 51°F)
Dewpoint: 4.4°C ( 40°F) [RH = 65%]
Pressure (altimeter):30.09 inches Hg (1019.0 mb) [Sea level pressure: 1018.5 mb]
Winds:from the SE (140 degrees) at 12 MPH (10 knots; 5.1 m/s)
Visibility:10 or more sm (16+ km)
Ceiling:at least 12,000 feet AGL
Clouds:sky clear below 12,000 feet AGL
QC Flag:automated observation with no human augmentation
Text:KBKW 221351Z AUTO 14009KT 10SM CLR 10/04 A3007 RMK AO2 SLP182 T01000044 TSNO
Temperature: 10.0°C ( 50°F)
Dewpoint: 4.4°C ( 40°F) [RH = 68%]
Pressure (altimeter):30.07 inches Hg (1018.4 mb) [Sea level pressure: 1018.2 mb]
Winds:from the SE (140 degrees) at 10 MPH (9 knots; 4.6 m/s)
Visibility:10 or more sm (16+ km)
Ceiling:at least 12,000 feet AGL
Clouds:sky clear below 12,000 feet AGL
QC Flag:automated observation with no human augmentation
Text:KBKW 221251Z AUTO 17008KT 10SM CLR 09/04 A3009 RMK AO2 SLP190 T00940039 TSNO
Temperature: 9.4°C ( 49°F)
Dewpoint: 3.9°C ( 39°F) [RH = 68%]
Pressure (altimeter):30.09 inches Hg (1019.0 mb) [Sea level pressure: 1019.0 mb]
Winds:from the S (170 degrees) at 9 MPH (8 knots; 4.1 m/s)
Visibility:10 or more sm (16+ km)
Ceiling:at least 12,000 feet AGL
Clouds:sky clear below 12,000 feet AGL
QC Flag:automated observation with no human augmentation
Text:KBKW 221151Z AUTO 15006KT 10SM FEW085 09/04 A3008 RMK AO2 SLP187 60000 T00940044 10111 20094 58005 TSNO
Temperature: 9.4°C ( 49°F)
Dewpoint: 4.4°C ( 40°F) [RH = 71%]
Pressure (altimeter):30.08 inches Hg (1018.7 mb) [Sea level pressure: 1018.7 mb]
Winds:from the SSE (150 degrees) at 7 MPH (6 knots; 3.1 m/s)
Visibility:10 or more sm (16+ km)
Ceiling:at least 12,000 feet AGL
Clouds: few clouds at 8500 feet AGL
QC Flag:automated observation with no human augmentation
Text:KBKW 221051Z AUTO 14008KT 10SM OVC085 10/04 A3010 RMK AO2 SLP190 T01000044 TSNO
Temperature: 10.0°C ( 50°F)
Dewpoint: 4.4°C ( 40°F) [RH = 68%]
Pressure (altimeter):30.10 inches Hg (1019.4 mb) [Sea level pressure: 1019.0 mb]
Winds:from the SE (140 degrees) at 9 MPH (8 knots; 4.1 m/s)
Visibility:10 or more sm (16+ km)
Ceiling:8500 feet AGL
Clouds: overcast cloud deck at 8500 feet AGL
QC Flag:automated observation with no human augmentation
Text:KBKW 220951Z AUTO 15008KT 10SM OVC085 10/04 A3009 RMK AO2 SLP187 T01000044 TSNO
Temperature: 10.0°C ( 50°F)
Dewpoint: 4.4°C ( 40°F) [RH = 68%]
Pressure (altimeter):30.09 inches Hg (1019.0 mb) [Sea level pressure: 1018.7 mb]
Winds:from the SSE (150 degrees) at 9 MPH (8 knots; 4.1 m/s)
Visibility:10 or more sm (16+ km)
Ceiling:8500 feet AGL
Clouds: overcast cloud deck at 8500 feet AGL
QC Flag:automated observation with no human augmentation
Text:KBKW 220851Z AUTO 14009KT 10SM OVC080 11/04 A3010 RMK AO2 SLP189 60000 T01060044 56014 TSNO
Temperature: 10.6°C ( 51°F)
Dewpoint: 4.4°C ( 40°F) [RH = 65%]
Pressure (altimeter):30.10 inches Hg (1019.4 mb) [Sea level pressure: 1018.9 mb]
Winds:from the SE (140 degrees) at 10 MPH (9 knots; 4.6 m/s)
Visibility:10 or more sm (16+ km)
Ceiling:8000 feet AGL
Clouds: overcast cloud deck at 8000 feet AGL
QC Flag:automated observation with no human augmentation
Text:KBKW 220751Z AUTO 14007KT 10SM OVC080 11/04 A3011 RMK AO2 RAE0653 SLP194 P0000 T01060044 TSNO
Temperature: 10.6°C ( 51°F)
Dewpoint: 4.4°C ( 40°F) [RH = 65%]
Pressure (altimeter):30.11 inches Hg (1019.7 mb) [Sea level pressure: 1019.4 mb]
Winds:from the SE (140 degrees) at 8 MPH (7 knots; 3.6 m/s)
Visibility:10 or more sm (16+ km)
Ceiling:8000 feet AGL
Clouds: overcast cloud deck at 8000 feet AGL
QC Flag:automated observation with no human augmentation
Text:KBKW 220651Z AUTO 15005KT 10SM -RA FEW050 BKN075 OVC085 10/05 A3011 RMK AO2 RAB42 SLP194 P0000 T01000050 TSNO
Temperature: 10.0°C ( 50°F)
Dewpoint: 5.0°C ( 41°F) [RH = 71%]
Pressure (altimeter):30.11 inches Hg (1019.7 mb) [Sea level pressure: 1019.4 mb]
Winds:from the SSE (150 degrees) at 6 MPH (5 knots; 2.6 m/s)
Visibility:10 or more sm (16+ km)
Ceiling:7500 feet AGL
Clouds: few clouds at 5000 feet AGL, broken clouds at 7500 feet AGL, overcast cloud deck at 8500 feet AGL
Weather:-RA (light rain)
QC Flag:automated observation with no human augmentation
Text:KBKW 220551Z AUTO 15004KT 10SM OVC055 10/05 A3014 RMK AO2 SLP205 T01000050 10106 20072 58005 TSNO
Temperature: 10.0°C ( 50°F)
Dewpoint: 5.0°C ( 41°F) [RH = 71%]
Pressure (altimeter):30.14 inches Hg (1020.7 mb) [Sea level pressure: 1020.5 mb]
Winds:from the SSE (150 degrees) at 5 MPH (4 knots; 2.1 m/s)
Visibility:10 or more sm (16+ km)
Ceiling:5500 feet AGL
Clouds: overcast cloud deck at 5500 feet AGL
QC Flag:automated observation with no human augmentation
Text:KBKW 220451Z AUTO 16003KT 10SM SCT050 OVC070 08/05 A3016 RMK AO2 SLP214 T00830050 401110056 TSNO
Temperature: 8.3°C ( 47°F)
Dewpoint: 5.0°C ( 41°F) [RH = 80%]
Pressure (altimeter):30.16 inches Hg (1021.4 mb) [Sea level pressure: 1021.4 mb]
Winds:from the SSE (160 degrees) at 3 MPH (3 knots; 1.5 m/s)
Visibility:10 or more sm (16+ km)
Ceiling:7000 feet AGL
Clouds: scattered clouds at 5000 feet AGL, overcast cloud deck at 7000 feet AGL
QC Flag:automated observation with no human augmentation
Text:KBKW 220351Z AUTO 00000KT 10SM OVC075 08/05 A3015 RMK AO2 SLP215 T00830050 TSNO
Temperature: 8.3°C ( 47°F)
Dewpoint: 5.0°C ( 41°F) [RH = 80%]
Pressure (altimeter):30.15 inches Hg (1021.1 mb) [Sea level pressure: 1021.5 mb]
Winds:calm
Visibility:10 or more sm (16+ km)
Ceiling:7500 feet AGL
Clouds: overcast cloud deck at 7500 feet AGL
QC Flag:automated observation with no human augmentation
Text:KBKW 220251Z AUTO 18004KT 10SM OVC070 10/05 A3016 RMK AO2 SLP214 T01000050 54000 TSNO
Temperature: 10.0°C ( 50°F)
Dewpoint: 5.0°C ( 41°F) [RH = 71%]
Pressure (altimeter):30.16 inches Hg (1021.4 mb) [Sea level pressure: 1021.4 mb]
Winds:from the S (180 degrees) at 5 MPH (4 knots; 2.1 m/s)
Visibility:10 or more sm (16+ km)
Ceiling:7000 feet AGL
Clouds: overcast cloud deck at 7000 feet AGL
QC Flag:automated observation with no human augmentation
Text:KBKW 220151Z AUTO 21003KT 10SM OVC070 10/05 A3015 RMK AO2 SLP215 T01000050 TSNO
Temperature: 10.0°C ( 50°F)
Dewpoint: 5.0°C ( 41°F) [RH = 71%]
Pressure (altimeter):30.15 inches Hg (1021.1 mb) [Sea level pressure: 1021.5 mb]
Winds:from the SSW (210 degrees) at 3 MPH (3 knots; 1.5 m/s)
Visibility:10 or more sm (16+ km)
Ceiling:7000 feet AGL
Clouds: overcast cloud deck at 7000 feet AGL
QC Flag:automated observation with no human augmentation
Text:KBKW 220051Z AUTO 19005KT 10SM OVC070 09/05 A3016 RMK AO2 SLP217 T00940050 TSNO
Temperature: 9.4°C ( 49°F)
Dewpoint: 5.0°C ( 41°F) [RH = 74%]
Pressure (altimeter):30.16 inches Hg (1021.4 mb) [Sea level pressure: 1021.7 mb]
Winds:from the S (190 degrees) at 6 MPH (5 knots; 2.6 m/s)
Visibility:10 or more sm (16+ km)
Ceiling:7000 feet AGL
Clouds: overcast cloud deck at 7000 feet AGL
QC Flag:automated observation with no human augmentation
Text:KBKW 212351Z AUTO 18004KT 10SM CLR 08/04 A3016 RMK AO2 SLP219 60000 T00830044 10111 20078 55001 TSNO
Temperature: 8.3°C ( 47°F)
Dewpoint: 4.4°C ( 40°F) [RH = 76%]
Pressure (altimeter):30.16 inches Hg (1021.4 mb) [Sea level pressure: 1021.9 mb]
Winds:from the S (180 degrees) at 5 MPH (4 knots; 2.1 m/s)
Visibility:10 or more sm (16+ km)
Ceiling:at least 12,000 feet AGL
Clouds:sky clear below 12,000 feet AGL
QC Flag:automated observation with no human augmentation
Text:KBKW 212251Z AUTO 20006KT 10SM OVC070 10/06 A3015 RMK AO2 SLP215 T01000056 TSNO
Temperature: 10.0°C ( 50°F)
Dewpoint: 5.6°C ( 42°F) [RH = 74%]
Pressure (altimeter):30.15 inches Hg (1021.1 mb) [Sea level pressure: 1021.5 mb]
Winds:from the SSW (200 degrees) at 7 MPH (6 knots; 3.1 m/s)
Visibility:10 or more sm (16+ km)
Ceiling:7000 feet AGL
Clouds: overcast cloud deck at 7000 feet AGL
QC Flag:automated observation with no human augmentation
Text:KBKW 212151Z AUTO 19005KT 10SM FEW070 11/06 A3016 RMK AO2 SLP217 T01060056 TSNO
Temperature: 10.6°C ( 51°F)
Dewpoint: 5.6°C ( 42°F) [RH = 71%]
Pressure (altimeter):30.16 inches Hg (1021.4 mb) [Sea level pressure: 1021.7 mb]
Winds:from the S (190 degrees) at 6 MPH (5 knots; 2.6 m/s)
Visibility:10 or more sm (16+ km)
Ceiling:at least 12,000 feet AGL
Clouds: few clouds at 7000 feet AGL
QC Flag:automated observation with no human augmentation
Text:KBKW 212051Z AUTO 21007KT 10SM BKN055 OVC070 10/06 A3016 RMK AO2 SLP217 60000 T01000061 58003 TSNO
Temperature: 10.0°C ( 50°F)
Dewpoint: 6.1°C ( 43°F) [RH = 77%]
Pressure (altimeter):30.16 inches Hg (1021.4 mb) [Sea level pressure: 1021.7 mb]
Winds:from the SSW (210 degrees) at 8 MPH (7 knots; 3.6 m/s)
Visibility:10 or more sm (16+ km)
Ceiling:5500 feet AGL
Clouds: broken clouds at 5500 feet AGL, overcast cloud deck at 7000 feet AGL
QC Flag:automated observation with no human augmentation
Text:KBKW 212022Z AUTO 22011KT 9SM FEW018 BKN035 OVC044 09/06 A3017 RMK AO2 T00940061 TSNO
Temperature: 9.4°C ( 49°F)
Dewpoint: 6.1°C ( 43°F) [RH = 80%]
Pressure (altimeter):30.17 inches Hg (1021.8 mb)
Winds:from the SW (220 degrees) at 13 MPH (11 knots; 5.7 m/s)
Visibility: 9 sm ( 14 km)
Ceiling:3500 feet AGL
Clouds: few clouds at 1800 feet AGL, broken clouds at 3500 feet AGL, overcast cloud deck at 4400 feet AGL
QC Flag:automated observation with no human augmentation
Text:KBKW 211951Z AUTO 24007KT 10SM BKN018 OVC025 09/06 A3017 RMK AO2 RAB22E48 SLP221 P0000 T00940056 TSNO
Temperature: 9.4°C ( 49°F)
Dewpoint: 5.6°C ( 42°F) [RH = 77%]
Pressure (altimeter):30.17 inches Hg (1021.8 mb) [Sea level pressure: 1022.1 mb]
Winds:from the WSW (240 degrees) at 8 MPH (7 knots; 3.6 m/s)
Visibility:10 or more sm (16+ km)
Ceiling:1800 feet AGL
Clouds: broken clouds at 1800 feet AGL, overcast cloud deck at 2500 feet AGL
QC Flag:automated observation with no human augmentation
Text:KBKW 211851Z AUTO 24008KT 10SM BKN020 BKN030 OVC070 11/05 A3017 RMK AO2 RAE1759 SLP220 P0000 T01060050 TSNO
Temperature: 10.6°C ( 51°F)
Dewpoint: 5.0°C ( 41°F) [RH = 68%]
Pressure (altimeter):30.17 inches Hg (1021.8 mb) [Sea level pressure: 1022.0 mb]
Winds:from the WSW (240 degrees) at 9 MPH (8 knots; 4.1 m/s)
Visibility:10 or more sm (16+ km)
Ceiling:2000 feet AGL
Clouds: broken clouds at 2000 feet AGL, broken clouds at 3000 feet AGL, overcast cloud deck at 7000 feet AGL
QC Flag:automated observation with no human augmentation
Text:KBKW 211846Z AUTO 24008KT 10SM BKN020 BKN030 OVC070 11/05 A3017 RMK AO2 RAE1759 P0000 TSNO
Temperature: 11.0°C ( 52°F)
Dewpoint: 5.0°C ( 41°F) [RH = 66%]
Pressure (altimeter):30.17 inches Hg (1021.8 mb)
Winds:from the WSW (240 degrees) at 9 MPH (8 knots; 4.1 m/s)
Visibility:10 or more sm (16+ km)
Ceiling:2000 feet AGL
Clouds: broken clouds at 2000 feet AGL, broken clouds at 3000 feet AGL, overcast cloud deck at 7000 feet AGL
QC Flag:automated observation with no human augmentation
Text:KBKW 211835Z AUTO 25006KT 10SM FEW018 BKN050 OVC070 11/05 A3017 RMK AO2 RAE1759 P0000 T01110050 TSNO
Temperature: 11.1°C ( 52°F)
Dewpoint: 5.0°C ( 41°F) [RH = 66%]
Pressure (altimeter):30.17 inches Hg (1021.8 mb)
Winds:from the WSW (250 degrees) at 7 MPH (6 knots; 3.1 m/s)
Visibility:10 or more sm (16+ km)
Ceiling:5000 feet AGL
Clouds: few clouds at 1800 feet AGL, broken clouds at 5000 feet AGL, overcast cloud deck at 7000 feet AGL
QC Flag:automated observation with no human augmentation